Airfield :
LOGIN :

Register | Disclaimer

   EN    FR    IT 

 










Legend :    VFR   Marginal VFR   IFR   Intensive IFR   Very Intensive IFR
Visi :
Ceiling :
>= 8 km
>= 3000ft
5 to 8 km
1000 to 3000 ft
1500m to 5 km
500 to 1000 ft
800 to 1500m
200 to 500 ft
< 800m
< 200 ft
Symbols :   Thunderstorms  Fog  Heavy snow  Heavy precipitations  Wind > 20 kt
SIGMETs :     Misc.  Thunderstorms  Icing  Turbulence  Mountain Waves  Volcanic Ashes







- Airport Elevation : 821 ft
- IATA code : LYS
- Download approach charts


LFLL - Lyon St Exupéry / Satolas

CURRENT METAR :
  • 160630Z 00000KT CAVOK 18/15 Q1013 NOSIG

EXPIRED METARs :
  • 160600Z 01003KT CAVOK 17/15 Q1013 NOSIG
  • 160530Z 02004KT 8000 NSC 17/15 Q1014 NOSIG
  • 160500Z 00000KT 8000 NSC 16/15 Q1014 NOSIG
  • 160430Z VRB02KT CAVOK 16/14 Q1014 NOSIG
  • 160400Z VRB03KT CAVOK 16/13 Q1013 NOSIG
  • 160330Z 13005KT CAVOK 17/14 Q1014 NOSIG

TAF TAF LFLL
Valid from the 16 at 06:00 until the 17 at 12:00 UTC


160500Z 1606/1712 VRB02KT CAVOK
BECMG 1608/1611 35010KT
PROB40
TEMPO 1613/1617 SHRA SCT050TCU
PROB30
TEMPO 1614/1616 VRB15G30KT 2000 TSRA BKN050CB
BECMG 1622/1624 VRB02KT
BECMG 1710/1712 34010KT
No reported NOTAMs for that airfield.
1 SIGMET reported for the Marseille FIR (LFMM) :
 
Embedded thunderstorms
LFMM SIGMET 1 VALID 160555/160800 LFPW
LFMM MARSEILLE FIR/UIR EMBD TS OBS AT 0555Z WI N4215 E00330 - N4215 E00230 - N4345 E00245 - N4345 E00445 - N4230 E00400 - N4215 E00330 TOP FL380 MOV NE 20KT NC=



MET'MAP, your aeronautical weather chart ! - Copyright ORBIFLY December 2007 - Disclaimer

ORBIFLY MET'MAP TEAM :

Programming & Development : Alexandra Zaïnal
Concept & Development : Baudouin d'Aumeries
Co-Development & Prog : Marc-Olivier Méhu
Technical & hardware support : Manuel Goepfert

Contact : metmap@orbifly.com




SOURCES & CREDITS :

   NOAA